Time;durP1;ratioP1;P1;durP2;ratioP2;P2;SDS_P1;SDS_P2;PMS_P1;PMS_P2;Temp;Humidity;BMP_temperature;BMP_pressure;BME280_temperature;BME280_humidity;BME280_pressure;Samples;Min_cycle;Max_cycle;Signal;HPM_P1;HPM_P2
2024/02/25 00:01:53;;;;;;;4.07;2.78;;;2.70;91.50;;;;;;5078163;28;20044;-59
2024/02/25 00:04:18;;;;;;;2.95;1.65;;;2.70;91.60;;;;;;5085153;28;20074;-60
2024/02/25 00:06:45;;;;;;;2.63;1.70;;;2.80;91.90;;;;;;5082919;28;20039;-61
2024/02/25 00:09:11;;;;;;;2.83;1.70;;;2.90;91.80;;;;;;5079508;28;20623;-59
2024/02/25 00:11:40;;;;;;;2.28;1.55;;;2.80;91.70;;;;;;5077793;28;20599;-60
2024/02/25 00:14:06;;;;;;;5.07;2.35;;;2.80;91.50;;;;;;5078205;28;20016;-60
2024/02/25 00:16:32;;;;;;;3.38;1.80;;;2.80;91.70;;;;;;5082488;28;20028;-60
2024/02/25 00:18:57;;;;;;;3.85;2.05;;;2.80;92.00;;;;;;5082372;28;20024;-60
2024/02/25 00:21:22;;;;;;;3.85;1.98;;;2.70;92.00;;;;;;5084570;28;20032;-60
2024/02/25 00:23:48;;;;;;;3.78;1.77;;;2.70;92.50;;;;;;5081417;28;20036;-60
2024/02/25 00:26:13;;;;;;;4.47;1.90;;;2.70;92.60;;;;;;5078596;28;20614;-61
2024/02/25 00:28:39;;;;;;;2.15;1.88;;;2.70;92.50;;;;;;5079288;28;20072;-60
2024/02/25 00:31:04;;;;;;;3.00;1.90;;;2.70;92.50;;;;;;5079086;28;20020;-60
2024/02/25 00:33:30;;;;;;;3.53;2.00;;;2.70;92.60;;;;;;5079348;28;20040;-60
2024/02/25 00:35:55;;;;;;;3.15;2.03;;;2.70;92.80;;;;;;5077329;28;20115;-60
2024/02/25 00:38:21;;;;;;;3.67;1.98;;;2.80;92.90;;;;;;5078115;28;20052;-59
2024/02/25 00:40:46;;;;;;;6.80;2.53;;;2.70;93.10;;;;;;5078822;28;20114;-61
2024/02/25 00:43:12;;;;;;;5.68;2.65;;;2.80;93.80;;;;;;5079367;28;20047;-60
2024/02/25 00:45:37;;;;;;;7.20;2.75;;;2.70;93.90;;;;;;5078634;28;20449;-60
2024/02/25 00:48:03;;;;;;;7.25;3.22;;;2.80;94.00;;;;;;5078986;28;20028;-60
2024/02/25 00:50:29;;;;;;;6.32;2.65;;;2.80;93.70;;;;;;5080685;28;20055;-60
2024/02/25 00:52:54;;;;;;;8.15;3.15;;;2.80;93.90;;;;;;5070865;28;23722;-60
2024/02/25 00:55:19;;;;;;;10.48;3.15;;;2.80;93.80;;;;;;5077376;28;20023;-60
2024/02/25 00:57:46;;;;;;;4.35;2.70;;;2.80;94.10;;;;;;5078734;28;20032;-60
2024/02/25 01:00:12;;;;;;;6.05;3.08;;;2.80;94.40;;;;;;5078485;28;20028;-59
2024/02/25 01:02:37;;;;;;;6.72;3.10;;;2.80;95.00;;;;;;5078529;28;20135;-60
2024/02/25 01:05:03;;;;;;;9.05;3.08;;;2.80;94.80;;;;;;5080407;28;20610;-60
2024/02/25 01:07:28;;;;;;;5.50;2.53;;;2.90;95.10;;;;;;5078706;28;20036;-60
2024/02/25 01:09:54;;;;;;;3.63;2.20;;;2.90;94.70;;;;;;5075541;28;20458;-60
2024/02/25 01:12:19;;;;;;;2.92;2.08;;;2.90;94.40;;;;;;5078637;28;20032;-60
2024/02/25 01:14:45;;;;;;;2.72;2.05;;;2.90;93.80;;;;;;5078145;28;20572;-60
2024/02/25 01:17:10;;;;;;;4.05;2.42;;;2.90;93.90;;;;;;5078270;28;20107;-60
2024/02/25 01:19:36;;;;;;;6.32;3.10;;;3.00;94.00;;;;;;5078456;28;20040;-61
2024/02/25 01:22:01;;;;;;;5.53;2.38;;;3.20;94.50;;;;;;5079788;28;20032;-60
2024/02/25 01:24:26;;;;;;;4.57;2.50;;;3.30;95.30;;;;;;5078170;28;20499;-61
2024/02/25 01:26:52;;;;;;;3.95;2.92;;;3.50;95.00;;;;;;5077820;28;20043;-61
2024/02/25 01:29:17;;;;;;;6.43;2.45;;;3.70;94.30;;;;;;5073804;28;20058;-60
2024/02/25 01:31:45;;;;;;;4.00;2.30;;;3.80;94.10;;;;;;5077667;28;20039;-60
2024/02/25 01:34:13;;;;;;;3.95;2.22;;;3.90;93.90;;;;;;5078409;28;20020;-60
2024/02/25 01:36:42;;;;;;;4.63;3.08;;;3.90;93.50;;;;;;5077136;28;20428;-61
2024/02/25 01:39:09;;;;;;;3.50;2.20;;;4.00;93.40;;;;;;5071493;28;20028;-60
2024/02/25 01:41:34;;;;;;;7.47;2.83;;;4.00;93.20;;;;;;5076274;28;20391;-58
2024/02/25 01:44:00;;;;;;;4.82;2.55;;;4.10;93.20;;;;;;5077699;28;20039;-60
2024/02/25 01:46:25;;;;;;;3.58;2.28;;;4.10;93.00;;;;;;5073395;28;20028;-60
2024/02/25 01:48:51;;;;;;;4.45;3.03;;;4.10;92.90;;;;;;5076204;28;20038;-60
2024/02/25 01:51:20;;;;;;;3.78;2.20;;;4.10;92.80;;;;;;5072900;28;20027;-59
2024/02/25 01:53:48;;;;;;;4.78;3.08;;;4.10;92.80;;;;;;5071412;28;20810;-60
2024/02/25 01:56:13;;;;;;;4.53;2.45;;;4.10;92.70;;;;;;5077477;28;20020;-60
2024/02/25 01:58:39;;;;;;;4.50;2.38;;;4.10;93.00;;;;;;5076989;28;20024;-60
2024/02/25 02:01:05;;;;;;;4.55;2.42;;;4.10;92.70;;;;;;5078931;28;20028;-60
2024/02/25 02:03:31;;;;;;;2.95;2.10;;;4.10;92.70;;;;;;5076823;28;20032;-60
2024/02/25 02:05:56;;;;;;;3.95;1.98;;;4.10;92.80;;;;;;5077078;28;20024;-60
2024/02/25 02:08:22;;;;;;;3.17;2.15;;;4.10;92.80;;;;;;5077151;28;20474;-60
2024/02/25 02:10:47;;;;;;;3.88;2.10;;;4.10;92.80;;;;;;5073344;28;20035;-59
2024/02/25 02:13:16;;;;;;;4.63;2.05;;;4.20;93.10;;;;;;5074937;28;20419;-60
2024/02/25 02:15:42;;;;;;;3.15;1.90;;;4.20;93.00;;;;;;5079080;28;20031;-60
2024/02/25 02:18:07;;;;;;;2.65;1.60;;;4.20;93.00;;;;;;5072808;28;20039;-60
2024/02/25 02:20:33;;;;;;;3.53;2.30;;;4.20;93.20;;;;;;5072927;28;20036;-60
2024/02/25 02:22:58;;;;;;;3.35;2.28;;;4.10;93.10;;;;;;5076985;28;20028;-59
2024/02/25 02:25:24;;;;;;;3.45;2.08;;;4.10;93.30;;;;;;5076365;28;20024;-60
2024/02/25 02:27:49;;;;;;;3.65;2.47;;;4.10;93.20;;;;;;5077091;28;20421;-57
2024/02/25 02:30:15;;;;;;;4.07;2.00;;;4.10;93.20;;;;;;5078647;28;20400;-60
2024/02/25 02:32:41;;;;;;;3.00;1.90;;;4.10;93.30;;;;;;5076666;28;20024;-60
2024/02/25 02:35:07;;;;;;;4.35;1.80;;;4.10;93.10;;;;;;5076565;28;20024;-60
2024/02/25 02:37:33;;;;;;;4.60;1.70;;;4.00;93.20;;;;;;5076372;28;20035;-60
2024/02/25 02:39:58;;;;;;;2.88;1.90;;;4.00;92.90;;;;;;5072179;28;20040;-60
2024/02/25 02:42:24;;;;;;;4.75;2.22;;;4.00;92.90;;;;;;5074832;28;20028;-60
2024/02/25 02:44:50;;;;;;;3.55;1.70;;;4.00;92.80;;;;;;5076893;28;20268;-60
2024/02/25 02:47:18;;;;;;;2.97;2.22;;;3.90;92.80;;;;;;5067799;28;20494;-60
2024/02/25 02:49:43;;;;;;;3.45;2.03;;;3.80;92.80;;;;;;5069355;28;20074;-60
2024/02/25 02:52:10;;;;;;;3.72;2.33;;;3.70;93.00;;;;;;5075136;28;20028;-59
2024/02/25 02:54:36;;;;;;;4.53;2.00;;;3.60;93.30;;;;;;5073698;28;20107;-60
2024/02/25 02:57:02;;;;;;;2.92;1.98;;;3.60;93.50;;;;;;5070095;28;20019;-60
2024/02/25 02:59:27;;;;;;;3.58;2.15;;;3.50;93.70;;;;;;5073357;28;20042;-60
2024/02/25 03:01:53;;;;;;;5.15;2.05;;;3.40;94.00;;;;;;5078343;28;20035;-60
2024/02/25 03:04:19;;;;;;;2.72;1.90;;;3.30;94.00;;;;;;5076291;28;20061;-60
2024/02/25 03:06:45;;;;;;;4.13;1.88;;;3.20;94.30;;;;;;5076276;28;20024;-60
2024/02/25 03:09:12;;;;;;;4.38;2.00;;;3.10;94.40;;;;;;5076383;28;20122;-60
2024/02/25 03:11:38;;;;;;;3.38;1.88;;;3.10;95.00;;;;;;5076549;28;20554;-61
2024/02/25 03:14:04;;;;;;;3.85;1.92;;;3.00;95.10;;;;;;5076109;28;20074;-60
2024/02/25 03:16:29;;;;;;;3.67;1.70;;;2.90;95.10;;;;;;5076607;28;20084;-60
2024/02/25 03:18:55;;;;;;;3.10;2.00;;;2.90;95.30;;;;;;5077323;28;20040;-60
2024/02/25 03:21:20;;;;;;;2.38;1.80;;;2.70;95.10;;;;;;5073982;28;20429;-60
2024/02/25 03:23:45;;;;;;;3.45;2.20;;;2.60;94.90;;;;;;5074692;28;20052;-59
2024/02/25 03:26:18;;;;;;;3.08;2.10;;;2.50;95.00;;;;;;5074135;28;20032;-59
2024/02/25 03:28:44;;;;;;;3.42;1.92;;;2.40;95.30;;;;;;5075435;28;20032;-60
2024/02/25 03:31:09;;;;;;;2.28;1.60;;;2.30;96.10;;;;;;5076119;28;20032;-60
2024/02/25 03:33:35;;;;;;;3.63;1.73;;;2.20;96.10;;;;;;5076386;28;20504;-60
2024/02/25 03:36:01;;;;;;;4.63;2.10;;;2.10;96.80;;;;;;5078116;28;20040;-59
2024/02/25 03:38:27;;;;;;;6.20;2.13;;;2.00;97.40;;;;;;5075612;28;20043;-61
2024/02/25 03:40:53;;;;;;;3.38;2.20;;;2.00;97.30;;;;;;5070591;28;20031;-60
2024/02/25 03:43:18;;;;;;;5.25;2.60;;;2.00;97.20;;;;;;5072288;28;20405;-62
2024/02/25 03:45:44;;;;;;;4.53;2.45;;;2.00;98.10;;;;;;5071460;28;20035;-60
2024/02/25 03:48:10;;;;;;;4.35;2.40;;;2.00;98.60;;;;;;5072444;28;20035;-59
2024/02/25 03:50:35;;;;;;;4.22;2.38;;;2.00;98.60;;;;;;5078628;28;20055;-60
2024/02/25 03:53:01;;;;;;;5.47;2.97;;;2.00;99.00;;;;;;5077780;28;20024;-59
2024/02/25 03:55:28;;;;;;;4.30;2.40;;;2.00;99.10;;;;;;5077931;28;20521;-60
2024/02/25 03:57:54;;;;;;;4.82;2.75;;;2.00;99.30;;;;;;5078005;28;20537;-60
2024/02/25 04:00:19;;;;;;;3.78;2.58;;;2.00;99.90;;;;;;5079839;28;20500;-59
2024/02/25 04:02:45;;;;;;;4.20;2.38;;;2.00;99.90;;;;;;5082389;28;20081;-60
2024/02/25 04:05:13;;;;;;;7.25;2.80;;;2.00;99.90;;;;;;5084143;28;20112;-60
2024/02/25 04:07:38;;;;;;;5.05;2.97;;;2.00;99.90;;;;;;5081900;28;20062;-60
2024/02/25 04:10:05;;;;;;;4.55;3.00;;;2.00;99.90;;;;;;5077731;28;20092;-59
2024/02/25 04:12:30;;;;;;;3.42;2.75;;;2.00;99.90;;;;;;5082385;28;20520;-60
2024/02/25 04:14:56;;;;;;;7.47;3.30;;;2.00;99.90;;;;;;5081926;28;20017;-59
2024/02/25 04:17:23;;;;;;;6.45;2.97;;;2.00;99.90;;;;;;5081607;28;20026;-60
2024/02/25 04:19:52;;;;;;;4.75;2.78;;;1.90;99.90;;;;;;5083928;28;20020;-60
2024/02/25 04:22:17;;;;;;;4.97;3.22;;;1.90;99.90;;;;;;5080102;28;20107;-60
2024/02/25 04:24:43;;;;;;;3.88;2.92;;;1.90;99.90;;;;;;5081883;28;20095;-60
2024/02/25 04:27:08;;;;;;;4.25;2.58;;;1.80;99.90;;;;;;5078386;28;20990;-59
2024/02/25 04:29:36;;;;;;;3.47;2.50;;;1.80;99.90;;;;;;5080241;28;20032;-60
2024/02/25 04:32:02;;;;;;;6.78;2.90;;;1.70;99.90;;;;;;5081675;28;20389;-59
2024/02/25 04:34:27;;;;;;;7.00;3.45;;;1.70;99.90;;;;;;5081588;28;20081;-60
2024/02/25 04:36:53;;;;;;;6.15;3.33;;;1.70;99.90;;;;;;5084034;28;20084;-55
2024/02/25 04:39:18;;;;;;;5.50;3.33;;;1.70;99.90;;;;;;5075522;28;20060;-51
2024/02/25 04:41:43;;;;;;;6.95;4.05;;;1.70;99.90;;;;;;5080385;28;20441;-54
2024/02/25 04:44:10;;;;;;;6.85;3.63;;;1.60;99.90;;;;;;5081581;28;20036;-55
2024/02/25 04:46:36;;;;;;;4.78;3.00;;;1.60;99.90;;;;;;5081465;28;20020;-57
2024/02/25 04:49:02;;;;;;;5.85;3.20;;;1.60;99.90;;;;;;5081414;28;20037;-57
2024/02/25 04:51:27;;;;;;;4.72;3.13;;;1.60;99.90;;;;;;5081377;28;20028;-55
2024/02/25 04:53:57;;;;;;;5.15;3.20;;;1.50;99.90;;;;;;5083228;28;20362;-57
2024/02/25 04:56:25;;;;;;;4.80;3.40;;;1.40;99.90;;;;;;5081151;28;20023;-56
2024/02/25 04:58:51;;;;;;;5.75;3.33;;;1.50;99.90;;;;;;5080954;28;20517;-56
2024/02/25 05:01:16;;;;;;;4.22;2.88;;;1.40;99.90;;;;;;5081405;28;20135;-57
2024/02/25 05:03:41;;;;;;;5.95;3.10;;;1.40;99.90;;;;;;5081153;28;20029;-56
2024/02/25 05:06:07;;;;;;;5.20;3.00;;;1.20;99.90;;;;;;5081268;28;20028;-57
2024/02/25 05:08:32;;;;;;;5.15;3.40;;;1.20;99.90;;;;;;5081130;28;20078;-56
2024/02/25 05:10:59;;;;;;;5.20;4.15;;;1.20;99.90;;;;;;5082418;28;20063;-56
2024/02/25 05:13:24;;;;;;;5.15;3.72;;;1.20;99.90;;;;;;5081041;28;20024;-55
2024/02/25 05:15:50;;;;;;;5.43;3.55;;;1.20;99.90;;;;;;5079924;28;20631;-56
2024/02/25 05:18:15;;;;;;;5.65;3.60;;;1.10;99.90;;;;;;5081074;28;20030;-57
2024/02/25 05:20:41;;;;;;;5.63;3.00;;;1.00;99.90;;;;;;5080780;28;20063;-55
2024/02/25 05:23:07;;;;;;;6.65;3.13;;;1.00;99.90;;;;;;5081256;28;20032;-57
2024/02/25 05:25:33;;;;;;;6.20;2.58;;;0.90;99.90;;;;;;5082716;28;20032;-57
2024/02/25 05:27:58;;;;;;;5.85;3.03;;;0.90;99.90;;;;;;5080997;28;20039;-59
2024/02/25 05:30:24;;;;;;;8.85;3.22;;;0.80;99.90;;;;;;5080930;28;20103;-56
2024/02/25 05:32:49;;;;;;;5.68;2.88;;;0.80;99.90;;;;;;5080756;28;20026;-56
2024/02/25 05:35:15;;;;;;;4.28;2.83;;;0.70;99.90;;;;;;5080625;28;20024;-54
2024/02/25 05:37:40;;;;;;;4.53;2.60;;;0.60;99.90;;;;;;5080596;28;20032;-55
2024/02/25 05:40:07;;;;;;;6.22;3.20;;;0.50;99.90;;;;;;5076171;28;20066;-53
2024/02/25 05:42:35;;;;;;;5.20;3.28;;;0.50;99.90;;;;;;5080709;28;20020;-56
2024/02/25 05:45:00;;;;;;;5.72;2.83;;;0.50;99.90;;;;;;5080704;28;20467;-57
2024/02/25 05:47:26;;;;;;;7.10;2.78;;;0.50;99.90;;;;;;5080529;28;20040;-56
2024/02/25 05:49:51;;;;;;;4.13;2.78;;;0.40;99.90;;;;;;5079862;28;20445;-56
2024/02/25 05:52:17;;;;;;;3.55;2.30;;;0.30;99.90;;;;;;5079449;28;20111;-56
2024/02/25 05:54:42;;;;;;;6.20;3.38;;;0.20;99.90;;;;;;5077402;28;20089;-56
2024/02/25 05:57:08;;;;;;;4.78;2.88;;;0.20;99.90;;;;;;5079749;28;20055;-56
2024/02/25 05:59:33;;;;;;;6.10;2.97;;;0.10;99.90;;;;;;5080004;28;20409;-55
2024/02/25 06:01:59;;;;;;;5.95;2.90;;;0.10;99.90;;;;;;5080201;28;20032;-57
2024/02/25 06:04:24;;;;;;;3.53;2.35;;;0.00;99.90;;;;;;5080061;28;20603;-54
2024/02/25 06:06:51;;;;;;;3.85;2.60;;;0.00;99.90;;;;;;5080969;28;20088;-54
2024/02/25 06:09:16;;;;;;;5.07;2.85;;;0.00;99.90;;;;;;5081179;28;20040;-57
2024/02/25 06:11:42;;;;;;;5.22;3.40;;;-0.10;99.90;;;;;;5079963;28;20031;-57
2024/02/25 06:14:07;;;;;;;3.97;2.47;;;-0.10;99.90;;;;;;5080190;28;20036;-57
2024/02/25 06:16:33;;;;;;;4.90;3.42;;;-0.10;99.90;;;;;;5079741;28;20055;-57
2024/02/25 06:18:59;;;;;;;4.30;2.63;;;0.00;99.90;;;;;;5079829;28;20036;-57
2024/02/25 06:21:24;;;;;;;4.32;2.70;;;0.00;99.90;;;;;;5079649;28;20016;-57
2024/02/25 06:23:50;;;;;;;8.15;4.22;;;0.00;99.90;;;;;;5078992;28;20030;-55
2024/02/25 06:26:16;;;;;;;6.35;3.78;;;0.00;99.90;;;;;;5081741;28;20413;-56
2024/02/25 06:28:42;;;;;;;6.43;3.70;;;0.10;99.90;;;;;;5079717;28;20440;-56
2024/02/25 06:31:08;;;;;;;8.48;4.75;;;0.20;99.90;;;;;;5079762;28;20034;-56
2024/02/25 06:33:34;;;;;;;5.40;3.78;;;0.30;99.90;;;;;;5079616;28;20028;-57
2024/02/25 06:35:59;;;;;;;11.43;4.30;;;0.30;99.90;;;;;;5079943;28;20063;-56
2024/02/25 06:38:25;;;;;;;4.85;3.17;;;0.30;99.90;;;;;;5076230;28;20040;-57
2024/02/25 06:40:50;;;;;;;6.20;3.85;;;0.30;99.90;;;;;;5073381;28;20525;-54
2024/02/25 06:43:16;;;;;;;6.47;3.70;;;0.30;99.90;;;;;;5073475;28;20035;-55
2024/02/25 06:45:42;;;;;;;5.85;3.45;;;0.40;99.90;;;;;;5079342;28;20036;-56
2024/02/25 06:48:07;;;;;;;5.43;3.17;;;0.40;99.90;;;;;;5079550;28;20035;-55
2024/02/25 06:50:34;;;;;;;8.73;3.92;;;0.50;99.90;;;;;;5079476;28;20028;-56
2024/02/25 06:53:00;;;;;;;6.60;3.50;;;0.50;99.90;;;;;;5079382;28;20059;-57
2024/02/25 06:55:25;;;;;;;9.55;4.55;;;0.60;99.90;;;;;;5079318;28;20528;-57
2024/02/25 06:57:51;;;;;;;7.75;4.72;;;0.60;99.90;;;;;;5081350;28;20566;-57
2024/02/25 07:00:17;;;;;;;6.53;3.83;;;0.70;99.90;;;;;;5079168;28;20127;-57
2024/02/25 07:02:42;;;;;;;8.05;3.58;;;0.90;99.90;;;;;;5075008;28;20032;-56
2024/02/25 07:05:08;;;;;;;6.65;3.97;;;1.00;99.90;;;;;;5074243;28;20454;-57
2024/02/25 07:07:34;;;;;;;9.30;3.92;;;1.30;99.90;;;;;;5076210;28;20024;-56
2024/02/25 07:09:59;;;;;;;7.60;4.18;;;1.50;99.90;;;;;;5080315;28;20059;-57
2024/02/25 07:12:25;;;;;;;7.90;4.20;;;1.70;99.90;;;;;;5077085;28;20020;-55
2024/02/25 07:14:51;;;;;;;7.70;4.82;;;1.90;99.90;;;;;;5074794;28;20028;-55
2024/02/25 07:17:16;;;;;;;8.15;4.25;;;2.10;99.90;;;;;;5077038;28;20016;-57
2024/02/25 07:19:46;;;;;;;6.97;4.20;;;2.40;99.90;;;;;;5072806;28;20040;-56
2024/02/25 07:22:11;;;;;;;6.95;4.30;;;2.70;99.90;;;;;;5074917;28;20024;-57
2024/02/25 07:24:39;;;;;;;7.65;4.47;;;2.90;99.90;;;;;;5075051;28;20024;-56
2024/02/25 07:27:05;;;;;;;8.43;4.53;;;3.10;99.90;;;;;;5079318;28;20020;-55
2024/02/25 07:29:31;;;;;;;6.13;4.43;;;3.30;99.90;;;;;;5076904;28;20558;-57
2024/02/25 07:31:57;;;;;;;8.57;5.82;;;3.60;99.90;;;;;;5078942;28;20024;-56
2024/02/25 07:34:23;;;;;;;8.68;5.00;;;3.80;99.90;;;;;;5080833;28;20078;-57
2024/02/25 07:36:48;;;;;;;8.63;4.60;;;4.10;99.90;;;;;;5083025;28;20036;-57
2024/02/25 07:39:14;;;;;;;12.02;5.55;;;4.40;99.90;;;;;;5077194;28;20036;-57
2024/02/25 07:41:40;;;;;;;10.55;5.10;;;4.60;99.90;;;;;;5084957;28;20511;-56
2024/02/25 07:44:05;;;;;;;8.23;4.65;;;4.80;99.90;;;;;;5076899;28;20016;-57
2024/02/25 07:46:31;;;;;;;8.90;4.53;;;4.90;99.90;;;;;;5078485;28;20026;-59
2024/02/25 07:48:58;;;;;;;8.13;4.50;;;5.10;99.90;;;;;;5078715;28;20411;-57
2024/02/25 07:51:24;;;;;;;8.88;5.50;;;5.10;99.90;;;;;;5076451;28;20378;-57
2024/02/25 07:53:50;;;;;;;11.20;5.05;;;5.10;99.90;;;;;;5075493;28;20027;-58
2024/02/25 07:56:23;;;;;;;7.95;5.00;;;5.10;99.90;;;;;;5078649;28;20048;-57
2024/02/25 07:58:48;;;;;;;7.25;4.65;;;5.20;99.90;;;;;;5082176;28;20024;-55
2024/02/25 08:01:14;;;;;;;8.80;4.72;;;5.10;99.90;;;;;;5080477;28;20550;-57
2024/02/25 08:03:40;;;;;;;8.70;4.80;;;5.10;99.90;;;;;;5079062;28;20099;-57
2024/02/25 08:06:05;;;;;;;6.20;4.32;;;5.10;99.90;;;;;;5075502;28;20025;-58
2024/02/25 08:08:31;;;;;;;7.80;4.28;;;5.10;99.90;;;;;;5081210;28;20048;-58
2024/02/25 08:10:57;;;;;;;7.72;5.05;;;5.10;99.90;;;;;;5082233;28;20579;-55
2024/02/25 08:13:22;;;;;;;8.35;4.55;;;5.10;99.90;;;;;;5078301;28;20024;-57
2024/02/25 08:15:47;;;;;;;8.10;4.20;;;5.10;99.90;;;;;;5078112;28;20099;-58
2024/02/25 08:18:13;;;;;;;8.43;5.03;;;5.10;99.90;;;;;;5075401;28;20027;-58
2024/02/25 08:20:39;;;;;;;6.70;4.30;;;5.00;99.90;;;;;;5077059;28;20531;-56
2024/02/25 08:23:04;;;;;;;6.80;4.20;;;5.00;99.90;;;;;;5082049;28;20028;-56
2024/02/25 08:25:29;;;;;;;6.93;3.90;;;5.10;99.90;;;;;;5080785;28;20032;-57
2024/02/25 08:27:55;;;;;;;7.45;4.28;;;5.10;99.90;;;;;;5082062;28;20020;-58
2024/02/25 08:30:22;;;;;;;6.57;3.97;;;5.20;99.90;;;;;;5081814;28;20039;-57
2024/02/25 08:32:48;;;;;;;6.95;4.03;;;5.20;99.80;;;;;;5083927;28;20020;-57
2024/02/25 08:35:14;;;;;;;7.32;4.60;;;5.30;99.80;;;;;;5081976;28;20424;-57
2024/02/25 08:37:39;;;;;;;7.38;4.10;;;5.30;99.50;;;;;;5081687;28;20036;-58
2024/02/25 08:40:06;;;;;;;6.18;4.10;;;5.30;99.30;;;;;;5074907;28;20028;-59
2024/02/25 08:42:31;;;;;;;7.07;4.20;;;5.40;99.30;;;;;;5081540;28;20024;-59
2024/02/25 08:44:57;;;;;;;7.05;4.03;;;5.40;99.10;;;;;;5081116;28;20111;-57
2024/02/25 08:47:22;;;;;;;7.97;4.30;;;5.50;98.70;;;;;;5081300;28;20092;-57
2024/02/25 08:49:48;;;;;;;5.70;3.67;;;5.60;98.50;;;;;;5077925;28;20782;-57
2024/02/25 08:52:14;;;;;;;7.35;4.30;;;5.60;98.40;;;;;;5081465;28;21081;-58
2024/02/25 08:54:40;;;;;;;6.00;4.15;;;5.70;98.10;;;;;;5081185;28;20028;-58
2024/02/25 08:57:05;;;;;;;6.43;3.90;;;5.80;97.60;;;;;;5081431;28;20397;-58
2024/02/25 08:59:31;;;;;;;5.95;3.85;;;6.00;97.60;;;;;;5080934;28;20028;-58
2024/02/25 09:01:57;;;;;;;6.72;3.92;;;6.00;97.40;;;;;;5083355;28;20411;-58
2024/02/25 09:04:27;;;;;;;6.57;4.32;;;6.10;97.30;;;;;;5081242;28;20032;-58
2024/02/25 09:06:56;;;;;;;6.72;4.47;;;6.10;97.10;;;;;;5081298;28;20031;-58
2024/02/25 09:09:21;;;;;;;6.50;4.50;;;6.10;96.80;;;;;;5078774;28;20699;-58
2024/02/25 09:11:46;;;;;;;8.63;4.38;;;6.20;96.50;;;;;;5080945;28;20028;-58
2024/02/25 09:14:12;;;;;;;8.45;4.47;;;6.20;96.00;;;;;;5080840;28;20043;-58
2024/02/25 09:16:38;;;;;;;8.75;4.20;;;6.30;95.80;;;;;;5081153;28;20020;-57
2024/02/25 09:19:04;;;;;;;8.27;5.05;;;6.30;95.80;;;;;;5080697;28;20032;-58
2024/02/25 09:21:30;;;;;;;8.75;4.22;;;6.40;95.40;;;;;;5083080;28;20032;-56
2024/02/25 09:23:56;;;;;;;8.25;4.47;;;6.30;95.30;;;;;;5082274;28;20023;-58
2024/02/25 09:26:22;;;;;;;6.35;4.05;;;6.40;94.80;;;;;;5080685;28;20039;-58
2024/02/25 09:28:48;;;;;;;6.40;3.97;;;6.40;94.50;;;;;;5080903;28;20095;-57
2024/02/25 09:31:18;;;;;;;6.70;3.97;;;6.30;94.60;;;;;;5079256;28;20039;-57
2024/02/25 09:33:44;;;;;;;5.00;3.50;;;6.40;94.80;;;;;;5084233;28;20024;-56
2024/02/25 09:36:09;;;;;;;7.70;4.03;;;6.40;94.40;;;;;;5080587;28;20039;-56
2024/02/25 09:38:35;;;;;;;8.85;4.20;;;6.50;94.50;;;;;;5080276;28;20035;-58
2024/02/25 09:41:02;;;;;;;6.13;3.78;;;6.50;94.20;;;;;;5075882;28;20036;-57
2024/02/25 09:43:27;;;;;;;8.25;4.88;;;6.70;94.20;;;;;;5080592;28;20043;-57
2024/02/25 09:45:56;;;;;;;7.25;4.18;;;6.80;94.00;;;;;;5080497;28;20032;-57
2024/02/25 09:48:22;;;;;;;6.80;4.32;;;6.90;93.60;;;;;;5079688;28;20032;-57
2024/02/25 09:50:50;;;;;;;6.45;3.38;;;7.10;93.40;;;;;;5079814;28;20019;-56
2024/02/25 09:53:16;;;;;;;7.55;4.07;;;7.20;93.60;;;;;;5079734;28;20081;-57
2024/02/25 09:55:45;;;;;;;4.68;3.30;;;7.20;93.40;;;;;;5080097;28;20032;-57
2024/02/25 09:58:11;;;;;;;6.22;3.88;;;7.30;93.00;;;;;;5079228;28;20229;-58
2024/02/25 10:00:38;;;;;;;6.38;3.90;;;7.40;92.70;;;;;;5081897;28;20035;-58
2024/02/25 10:03:07;;;;;;;8.52;4.30;;;7.60;92.90;;;;;;5079424;28;20024;-58
2024/02/25 10:05:33;;;;;;;9.98;4.00;;;7.80;92.40;;;;;;5079632;28;20111;-58
2024/02/25 10:08:03;;;;;;;5.80;4.03;;;8.00;91.80;;;;;;5079831;28;20107;-57
2024/02/25 10:10:31;;;;;;;8.82;4.72;;;8.20;91.70;;;;;;5078842;28;20039;-58
2024/02/25 10:12:59;;;;;;;8.18;4.18;;;8.20;91.10;;;;;;5077876;28;20038;-58
2024/02/25 10:15:24;;;;;;;7.15;3.88;;;8.40;90.70;;;;;;5079736;28;20081;-57
2024/02/25 10:17:51;;;;;;;9.02;4.72;;;8.60;90.20;;;;;;5079525;28;20367;-58
2024/02/25 10:20:16;;;;;;;7.45;4.70;;;8.70;89.70;;;;;;5079416;28;20044;-57
2024/02/25 10:22:42;;;;;;;7.25;4.22;;;8.60;87.20;;;;;;5081398;28;20024;-56
2024/02/25 10:25:07;;;;;;;6.88;4.18;;;8.60;86.60;;;;;;5079303;28;20028;-57
2024/02/25 10:27:33;;;;;;;9.50;4.80;;;8.60;86.20;;;;;;5079102;28;20093;-57
2024/02/25 10:30:01;;;;;;;7.10;4.15;;;8.70;85.90;;;;;;5079409;28;20575;-57
2024/02/25 10:32:28;;;;;;;8.05;4.80;;;8.80;86.10;;;;;;5079546;28;20024;-57
2024/02/25 10:34:58;;;;;;;8.77;5.07;;;8.90;85.80;;;;;;5081568;28;20020;-57
2024/02/25 10:37:26;;;;;;;5.35;3.53;;;9.10;85.30;;;;;;5080881;28;20481;-57
2024/02/25 10:39:56;;;;;;;7.93;3.88;;;9.30;85.10;;;;;;5073436;28;20032;-56
2024/02/25 10:42:26;;;;;;;6.18;3.88;;;9.50;84.50;;;;;;5077116;28;20466;-59
2024/02/25 10:44:57;;;;;;;5.75;4.15;;;9.40;81.80;;;;;;5073225;28;20023;-53
2024/02/25 10:47:23;;;;;;;6.82;3.60;;;9.40;83.10;;;;;;5076485;28;20021;-52
2024/02/25 10:49:53;;;;;;;8.77;4.13;;;9.50;82.70;;;;;;5074686;28;20031;-54
2024/02/25 10:52:20;;;;;;;8.63;4.20;;;9.50;82.60;;;;;;5076261;28;20521;-49
2024/02/25 10:54:49;;;;;;;7.05;3.78;;;9.60;81.00;;;;;;5072446;28;20024;-53
2024/02/25 10:57:19;;;;;;;7.32;4.18;;;9.70;80.50;;;;;;5074647;28;20024;-54
2024/02/25 10:59:47;;;;;;;5.43;3.65;;;9.90;79.40;;;;;;5073747;28;20227;-53
2024/02/25 11:02:14;;;;;;;5.40;3.60;;;9.90;78.90;;;;;;5074867;28;20058;-55
2024/02/25 11:04:39;;;;;;;9.02;4.05;;;9.90;77.50;;;;;;5078690;28;20040;-55
2024/02/25 11:07:06;;;;;;;5.65;3.63;;;9.90;76.50;;;;;;5074821;28;20524;-52
2024/02/25 11:09:32;;;;;;;7.60;3.90;;;9.90;75.60;;;;;;5076160;28;20071;-52
2024/02/25 11:12:21;;;;;;;6.00;3.28;;;9.80;76.00;;;;;;5074203;28;20070;-53
2024/02/25 11:14:50;;;;;;;6.22;3.70;;;9.80;74.40;;;;;;5074930;28;20303;-52
2024/02/25 11:17:20;;;;;;;7.07;3.95;;;9.80;73.50;;;;;;5073022;28;20077;-53
2024/02/25 11:20:03;;;;;;;6.63;3.58;;;9.80;74.10;;;;;;5074743;28;20036;-54
2024/02/25 11:22:49;;;;;;;4.97;3.03;;;9.90;72.90;;;;;;5074265;28;20027;-55
2024/02/25 11:25:29;;;;;;;4.00;2.45;;;9.90;72.70;;;;;;5071555;28;20115;-49
2024/02/25 11:27:59;;;;;;;4.85;2.85;;;9.90;71.30;;;;;;5072209;28;20032;-55
2024/02/25 11:30:35;;;;;;;3.35;2.58;;;9.90;70.70;;;;;;5072882;28;20119;-53
2024/02/25 11:33:01;;;;;;;5.25;2.55;;;10.00;70.00;;;;;;5073001;28;20051;-53
2024/02/25 11:35:27;;;;;;;5.43;2.50;;;10.10;69.40;;;;;;5074662;28;20071;-52
2024/02/25 11:37:52;;;;;;;4.47;2.38;;;10.10;69.50;;;;;;5076769;28;20056;-53
2024/02/25 11:40:19;;;;;;;4.70;2.25;;;10.20;69.10;;;;;;5067045;28;20339;-54
2024/02/25 11:42:45;;;;;;;2.03;1.73;;;10.30;69.10;;;;;;5074701;28;20455;-51
2024/02/25 11:45:11;;;;;;;2.83;1.67;;;10.40;67.80;;;;;;5076419;28;20036;-50
2024/02/25 11:47:37;;;;;;;3.63;1.98;;;10.50;68.20;;;;;;5073993;28;20020;-51
2024/02/25 11:50:03;;;;;;;4.43;2.40;;;10.60;67.80;;;;;;5074109;28;20024;-52
2024/02/25 11:52:28;;;;;;;2.70;1.90;;;10.70;67.10;;;;;;5072371;28;20108;-53
2024/02/25 11:54:54;;;;;;;1.70;1.40;;;10.70;63.90;;;;;;5072169;28;20024;-54
2024/02/25 11:57:19;;;;;;;3.22;1.70;;;10.80;63.00;;;;;;5073925;28;20059;-51
2024/02/25 11:59:45;;;;;;;2.72;1.40;;;10.80;63.50;;;;;;5075926;28;20062;-51
2024/02/25 12:02:11;;;;;;;2.33;1.40;;;10.90;61.00;;;;;;5077945;28;20271;-53
2024/02/25 12:04:37;;;;;;;2.30;1.60;;;11.00;60.80;;;;;;5078798;28;20043;-52
2024/02/25 12:07:04;;;;;;;2.05;1.30;;;11.00;59.30;;;;;;5078046;28;20024;-54
2024/02/25 12:09:30;;;;;;;1.90;1.02;;;11.00;57.00;;;;;;5072297;28;20447;-50
2024/02/25 12:11:56;;;;;;;2.30;1.40;;;11.10;57.20;;;;;;5075738;28;20032;-54
2024/02/25 12:14:22;;;;;;;3.53;1.92;;;11.20;57.40;;;;;;5072523;28;20117;-53
2024/02/25 12:16:49;;;;;;;1.40;1.10;;;11.20;58.50;;;;;;5076893;28;20052;-51
2024/02/25 12:19:18;;;;;;;3.17;1.02;;;11.20;57.50;;;;;;5079801;28;20515;-55
2024/02/25 12:21:54;;;;;;;2.33;1.20;;;11.30;53.50;;;;;;5076799;28;20759;-52
2024/02/25 12:24:19;;;;;;;2.95;1.17;;;11.30;55.10;;;;;;5082161;28;20374;-50
2024/02/25 12:26:54;;;;;;;3.53;1.20;;;11.30;55.00;;;;;;5082477;28;20040;-55
2024/02/25 12:29:24;;;;;;;1.75;1.15;;;11.50;54.10;;;;;;5082058;28;20457;-50
2024/02/25 12:31:49;;;;;;;2.10;1.23;;;11.50;52.60;;;;;;5072497;28;20588;-55
2024/02/25 12:34:16;;;;;;;1.75;0.80;;;11.50;50.30;;;;;;5080387;28;20123;-54
2024/02/25 12:36:46;;;;;;;2.25;1.25;;;11.60;50.80;;;;;;5081948;28;20032;-54
2024/02/25 12:39:15;;;;;;;1.30;0.95;;;11.60;51.40;;;;;;5075166;28;20032;-53
2024/02/25 12:41:41;;;;;;;1.52;0.98;;;11.60;50.90;;;;;;5079507;28;20027;-55
2024/02/25 12:44:07;;;;;;;2.28;1.20;;;11.70;51.00;;;;;;5081598;28;20020;-50
2024/02/25 12:46:36;;;;;;;1.27;1.05;;;11.70;50.40;;;;;;5081603;28;20032;-50
2024/02/25 12:49:14;;;;;;;2.22;1.27;;;11.80;49.30;;;;;;5081692;28;20035;-53
2024/02/25 12:51:40;;;;;;;2.30;1.17;;;11.90;47.10;;;;;;5079692;28;20032;-54